createdAt,value
2022-08-07T00:01:44.163Z,16.10
2022-08-07T00:04:46.705Z,16.10
2022-08-07T00:07:58.491Z,16.10
2022-08-07T00:11:04.902Z,16.10
2022-08-07T00:14:09.490Z,16.00
2022-08-07T00:17:15.911Z,16.00
2022-08-07T00:20:29.758Z,16.00
2022-08-07T00:23:40.217Z,16.00
2022-08-07T00:26:59.014Z,16.00
2022-08-07T00:30:07.050Z,15.90
2022-08-07T00:33:32.672Z,15.90
2022-08-07T00:36:35.835Z,15.90
2022-08-07T00:39:45.160Z,15.80
2022-08-07T00:42:57.310Z,15.80
2022-08-07T00:46:02.831Z,15.80
2022-08-07T00:49:07.019Z,15.80
2022-08-07T00:52:11.361Z,15.80
2022-08-07T00:55:17.258Z,15.80
2022-08-07T00:58:28.363Z,15.80
2022-08-07T01:01:44.568Z,15.80
2022-08-07T01:04:49.292Z,15.80
2022-08-07T01:07:52.196Z,15.70
2022-08-07T01:10:56.610Z,15.70
2022-08-07T01:14:01.767Z,15.70
2022-08-07T01:17:07.169Z,15.70
2022-08-07T01:20:16.596Z,15.60
2022-08-07T01:23:35.403Z,15.60
2022-08-07T01:26:42.501Z,15.60
2022-08-07T01:29:54.766Z,15.50
2022-08-07T01:32:58.294Z,15.50
2022-08-07T01:36:06.326Z,15.50
2022-08-07T01:39:11.838Z,15.40
2022-08-07T01:42:39.679Z,15.40
2022-08-07T01:45:40.492Z,15.30
2022-08-07T01:48:50.357Z,15.40
2022-08-07T01:52:02.570Z,15.30
2022-08-07T01:55:22.512Z,15.40
2022-08-07T01:58:33.593Z,15.40
2022-08-07T02:02:01.980Z,15.40
2022-08-07T02:05:15.962Z,15.40
2022-08-07T02:08:35.502Z,15.40
2022-08-07T02:12:04.171Z,15.30
2022-08-07T02:15:09.289Z,15.30
2022-08-07T02:18:14.434Z,15.30
2022-08-07T02:21:21.670Z,15.30
2022-08-07T02:24:25.459Z,15.20
2022-08-07T02:27:35.114Z,15.20
2022-08-07T02:30:39.697Z,15.20
2022-08-07T02:34:04.054Z,15.10
2022-08-07T02:37:08.792Z,15.20
2022-08-07T02:40:30.752Z,15.10
2022-08-07T02:43:39.700Z,15.10
2022-08-07T02:46:46.698Z,15.00
2022-08-07T02:49:55.915Z,15.00
2022-08-07T02:53:07.142Z,15.00
2022-08-07T02:56:21.868Z,14.90
2022-08-07T02:59:30.081Z,14.90
2022-08-07T03:02:33.697Z,14.90
2022-08-07T03:05:38.559Z,14.90
2022-08-07T03:08:43.916Z,14.90
2022-08-07T03:11:52.536Z,14.90
2022-08-07T03:15:07.771Z,14.80
2022-08-07T03:18:11.504Z,14.80
2022-08-07T03:21:20.663Z,14.80
2022-08-07T03:24:27.261Z,14.80
2022-08-07T03:34:43.508Z,14.70
2022-08-07T03:37:55.082Z,14.70
2022-08-07T03:41:00.328Z,14.60
2022-08-07T03:44:04.593Z,14.60
2022-08-07T03:47:13.638Z,14.60
2022-08-07T03:50:22.972Z,14.50
2022-08-07T03:53:50.083Z,14.60
2022-08-07T03:57:03.359Z,14.50
2022-08-07T04:00:11.941Z,14.50
2022-08-07T04:03:17.131Z,14.50
2022-08-07T04:06:37.885Z,14.50
2022-08-07T04:09:45.570Z,14.50
2022-08-07T04:12:53.268Z,14.60
2022-08-07T04:15:58.577Z,14.60
2022-08-07T04:19:14.616Z,14.60
2022-08-07T04:22:19.352Z,14.60
2022-08-07T04:25:29.297Z,14.60
2022-08-07T04:28:32.425Z,14.70
2022-08-07T04:31:39.008Z,14.70
2022-08-07T04:34:59.769Z,14.80
2022-08-07T04:38:07.707Z,14.80
2022-08-07T04:41:10.784Z,14.90
2022-08-07T04:44:22.388Z,14.90
2022-08-07T04:47:56.911Z,15.00
2022-08-07T04:51:09.136Z,15.00
2022-08-07T04:54:22.652Z,15.10
2022-08-07T04:58:15.140Z,15.20
2022-08-07T05:01:16.723Z,15.30
2022-08-07T05:04:32.625Z,15.50
2022-08-07T05:07:51.483Z,15.60
2022-08-07T05:11:02.678Z,15.80
2022-08-07T05:14:52.970Z,15.90
2022-08-07T05:17:52.096Z,16.10
2022-08-07T05:21:01.329Z,16.40
2022-08-07T05:24:14.007Z,16.50
2022-08-07T05:28:03.046Z,16.80
2022-08-07T05:30:43.364Z,17.10
2022-08-07T05:34:04.348Z,17.20
2022-08-07T05:37:09.517Z,17.40
2022-08-07T05:40:18.651Z,17.70
2022-08-07T05:43:49.897Z,18.00
2022-08-07T05:46:51.209Z,18.20
2022-08-07T05:49:55.425Z,18.50
2022-08-07T05:52:58.733Z,18.80
2022-08-07T05:56:06.176Z,19.20
2022-08-07T05:59:14.730Z,19.40
2022-08-07T06:02:22.766Z,19.70
2022-08-07T06:05:32.685Z,19.90
2022-08-07T06:08:40.437Z,20.10
2022-08-07T06:11:47.408Z,20.20
2022-08-07T06:14:50.528Z,20.40
2022-08-07T06:17:54.960Z,20.60
2022-08-07T06:22:14.276Z,20.90
2022-08-07T06:24:38.695Z,21.00
2022-08-07T06:28:01.245Z,21.30
2022-08-07T06:31:05.747Z,21.60
2022-08-07T06:34:08.818Z,21.70
2022-08-07T06:37:26.829Z,21.80
2022-08-07T06:40:46.046Z,21.80
2022-08-07T06:43:59.498Z,22.00
2022-08-07T06:47:10.480Z,22.10
2022-08-07T06:50:15.948Z,22.20
2022-08-07T06:54:11.583Z,22.30
2022-08-07T06:56:49.585Z,22.50
2022-08-07T07:00:14.539Z,22.70
2022-08-07T07:03:26.428Z,22.70
2022-08-07T07:07:00.364Z,22.80
2022-08-07T07:10:03.795Z,22.70
2022-08-07T07:13:13.256Z,22.60
2022-08-07T07:16:21.416Z,22.50
2022-08-07T07:19:55.948Z,22.50
2022-08-07T07:24:08.347Z,22.50
2022-08-07T07:26:34.380Z,22.60
2022-08-07T07:30:08.617Z,22.70
2022-08-07T07:33:12.112Z,22.70
2022-08-07T07:36:17.173Z,22.50
2022-08-07T07:39:22.415Z,22.60
2022-08-07T07:42:32.799Z,22.40
2022-08-07T07:46:37.148Z,22.20
2022-08-07T07:50:29.451Z,22.00
2022-08-07T07:52:28.305Z,21.90
2022-08-07T07:55:37.717Z,21.70
2022-08-07T07:58:50.711Z,21.80
2022-08-07T08:02:02.431Z,21.70
2022-08-07T08:05:14.156Z,21.60
2022-08-07T08:08:34.482Z,21.60
2022-08-07T08:11:47.418Z,21.70
2022-08-07T08:15:06.794Z,21.70
2022-08-07T08:18:17.893Z,21.80
2022-08-07T08:21:55.661Z,21.80
2022-08-07T08:25:41.830Z,21.70
2022-08-07T08:28:47.415Z,21.60
2022-08-07T08:31:58.685Z,21.60
2022-08-07T08:35:19.758Z,21.60
2022-08-07T08:38:40.472Z,21.60
2022-08-07T08:41:58.220Z,21.80
2022-08-07T08:45:13.457Z,22.00
2022-08-07T08:48:32.413Z,22.00
2022-08-07T08:52:13.171Z,21.90
2022-08-07T08:55:21.289Z,22.00
2022-08-07T08:58:50.546Z,22.20
2022-08-07T09:02:03.476Z,22.30
2022-08-07T09:05:32.045Z,22.50
2022-08-07T09:08:46.762Z,22.70
2022-08-07T09:12:20.090Z,22.90
2022-08-07T09:16:24.608Z,23.00
2022-08-07T09:19:50.725Z,22.90
2022-08-07T09:24:32.557Z,22.90
2022-08-07T09:26:23.691Z,22.80
2022-08-07T09:30:04.532Z,22.80
2022-08-07T09:33:16.690Z,22.70
2022-08-07T09:36:43.023Z,22.50
2022-08-07T09:39:53.672Z,22.60
2022-08-07T09:43:14.603Z,22.70
2022-08-07T09:47:56.174Z,22.80
2022-08-07T09:50:19.469Z,22.70
2022-08-07T09:53:25.581Z,22.80
2022-08-07T09:56:59.733Z,23.00
2022-08-07T10:00:09.162Z,23.10
2022-08-07T10:04:05.849Z,23.40
2022-08-07T10:07:31.686Z,23.70
2022-08-07T10:14:30.449Z,24.00
2022-08-07T10:18:08.467Z,23.90
2022-08-07T10:22:14.234Z,23.80
2022-08-07T10:24:57.585Z,23.70
2022-08-07T10:28:25.876Z,23.80
2022-08-07T10:31:45.170Z,24.00
2022-08-07T10:35:09.091Z,24.10
2022-08-07T10:38:48.259Z,24.30
2022-08-07T10:42:09.084Z,24.30
2022-08-07T10:45:44.113Z,24.20
2022-08-07T10:48:58.486Z,24.50
2022-08-07T10:52:13.273Z,24.70
2022-08-07T10:55:37.210Z,25.00
2022-08-07T10:58:59.789Z,24.90
2022-08-07T11:02:12.472Z,24.70
2022-08-07T11:05:35.705Z,24.60
2022-08-07T11:08:59.716Z,24.60
2022-08-07T11:12:12.233Z,24.50
2022-08-07T11:15:21.261Z,24.50
2022-08-07T11:18:39.503Z,24.40
2022-08-07T11:21:51.248Z,24.70
2022-08-07T11:25:06.522Z,24.70
2022-08-07T11:28:17.612Z,24.50
2022-08-07T11:31:28.050Z,24.30
2022-08-07T11:34:37.791Z,24.20
2022-08-07T11:38:12.832Z,24.10
2022-08-07T11:41:31.053Z,24.00
2022-08-07T11:44:57.609Z,24.00
2022-08-07T11:48:29.494Z,24.00
2022-08-07T11:51:51.276Z,24.00
2022-08-07T11:55:13.140Z,24.10
2022-08-07T11:58:33.516Z,23.90
2022-08-07T12:02:00.785Z,23.80
2022-08-07T12:05:15.223Z,23.80
2022-08-07T12:08:35.590Z,23.70
2022-08-07T12:12:09.431Z,23.80
2022-08-07T12:15:17.177Z,23.70
2022-08-07T12:18:47.760Z,23.70
2022-08-07T12:22:39.667Z,23.70
2022-08-07T12:26:03.363Z,23.80
2022-08-07T12:29:16.891Z,24.20
2022-08-07T12:32:30.856Z,24.50
2022-08-07T12:35:36.517Z,24.70
2022-08-07T12:38:42.785Z,24.90
2022-08-07T12:41:52.143Z,25.00
2022-08-07T12:44:57.157Z,25.20
2022-08-07T12:48:05.177Z,25.50
2022-08-07T12:51:51.059Z,25.60
2022-08-07T12:55:09.442Z,25.80
2022-08-07T12:58:16.745Z,26.10
2022-08-07T13:01:32.112Z,26.30
2022-08-07T13:05:01.947Z,26.40
2022-08-07T13:08:31.873Z,26.60
2022-08-07T13:12:03.303Z,26.50
2022-08-07T13:15:23.713Z,26.40
2022-08-07T13:18:43.014Z,26.60
2022-08-07T13:22:04.026Z,26.90
2022-08-07T13:25:29.731Z,27.10
2022-08-07T13:28:40.458Z,27.20
2022-08-07T13:31:57.975Z,27.40
2022-08-07T13:35:08.772Z,27.60
2022-08-07T13:38:18.541Z,27.70
2022-08-07T13:41:33.210Z,27.50
2022-08-07T13:44:39.519Z,27.50
2022-08-07T13:48:06.803Z,27.50
2022-08-07T13:51:27.050Z,27.40
2022-08-07T13:54:33.413Z,27.60
2022-08-07T13:57:59.087Z,27.60
2022-08-07T14:01:12.887Z,27.40
2022-08-07T14:04:21.433Z,27.30
2022-08-07T14:07:28.749Z,27.30
2022-08-07T14:10:42.425Z,27.00
2022-08-07T14:13:55.391Z,26.90
2022-08-07T14:17:13.164Z,26.80
2022-08-07T14:20:42.249Z,26.80
2022-08-07T14:24:01.726Z,26.70
2022-08-07T14:28:10.272Z,26.60
2022-08-07T14:30:34.000Z,26.50
2022-08-07T14:33:44.672Z,26.40
2022-08-07T14:40:26.691Z,26.00
2022-08-07T14:43:56.983Z,25.80
2022-08-07T14:47:14.170Z,25.70
2022-08-07T14:50:20.409Z,25.40
2022-08-07T14:54:03.467Z,25.20
2022-08-07T14:56:51.209Z,25.00
2022-08-07T15:00:04.499Z,24.70
2022-08-07T15:03:16.693Z,24.40
2022-08-07T15:06:26.304Z,24.40
2022-08-07T15:09:59.190Z,24.30
2022-08-07T15:12:59.457Z,24.20
2022-08-07T15:16:11.454Z,24.30
2022-08-07T15:19:19.347Z,24.10
2022-08-07T15:22:51.598Z,24.10
2022-08-07T15:25:59.343Z,24.20
2022-08-07T15:30:06.690Z,24.30
2022-08-07T15:32:39.806Z,24.50
2022-08-07T15:36:01.927Z,24.50
2022-08-07T15:39:12.262Z,24.30
2022-08-07T15:42:48.136Z,24.20
2022-08-07T15:46:02.442Z,24.10
2022-08-07T15:49:15.397Z,24.00
2022-08-07T15:52:30.473Z,24.00
2022-08-07T15:55:53.838Z,24.00
2022-08-07T15:59:01.326Z,24.20
2022-08-07T16:02:05.955Z,24.30
2022-08-07T16:05:15.004Z,24.50
2022-08-07T16:08:30.668Z,24.40
2022-08-07T16:11:56.019Z,24.50
2022-08-07T16:15:08.697Z,24.50
2022-08-07T16:18:50.922Z,24.50
2022-08-07T16:22:14.860Z,24.50
2022-08-07T16:25:54.740Z,24.60
2022-08-07T16:30:07.246Z,24.50
2022-08-07T16:32:46.636Z,24.50
2022-08-07T16:36:20.386Z,24.50
2022-08-07T16:39:55.695Z,24.40
2022-08-07T16:43:11.584Z,24.30
2022-08-07T16:47:16.624Z,24.30
2022-08-07T16:50:39.291Z,24.20
2022-08-07T16:54:32.680Z,24.10
2022-08-07T16:58:02.322Z,24.00
2022-08-07T17:01:34.468Z,23.90
2022-08-07T17:04:57.435Z,23.80
2022-08-07T17:08:02.115Z,23.70
2022-08-07T17:11:11.386Z,23.60
2022-08-07T17:14:24.416Z,23.50
2022-08-07T17:17:49.080Z,23.40
2022-08-07T17:20:54.072Z,23.40
2022-08-07T17:24:15.060Z,23.30
2022-08-07T17:27:23.993Z,23.20
2022-08-07T17:30:58.267Z,23.10
2022-08-07T17:34:33.253Z,23.00
2022-08-07T17:38:09.353Z,23.00
2022-08-07T17:42:01.211Z,22.90
2022-08-07T17:44:45.498Z,22.90
2022-08-07T17:48:02.465Z,22.80
2022-08-07T17:51:21.350Z,22.80
2022-08-07T17:54:54.136Z,22.70
2022-08-07T17:58:04.182Z,22.70
2022-08-07T18:01:21.577Z,22.70
2022-08-07T18:04:34.873Z,22.70
2022-08-07T18:07:47.322Z,22.70
2022-08-07T18:12:07.303Z,22.70
2022-08-07T18:14:25.056Z,22.70
2022-08-07T18:18:39.627Z,22.60
2022-08-07T18:21:41.387Z,22.50
2022-08-07T18:24:34.256Z,22.40
2022-08-07T18:28:00.126Z,22.40
2022-08-07T18:31:18.496Z,22.20
2022-08-07T18:35:01.207Z,22.20
2022-08-07T18:38:56.383Z,22.10
2022-08-07T18:42:04.168Z,22.10
2022-08-07T18:45:43.639Z,22.00
2022-08-07T18:50:05.771Z,22.00
2022-08-07T18:52:53.812Z,21.80
2022-08-07T18:56:02.840Z,21.70
2022-08-07T18:59:47.473Z,21.60
2022-08-07T19:02:59.986Z,21.50
2022-08-07T19:06:07.989Z,21.40
2022-08-07T19:09:56.259Z,21.40
2022-08-07T19:12:57.793Z,21.30
2022-08-07T19:17:00.646Z,21.20
2022-08-07T19:19:50.729Z,21.10
2022-08-07T19:23:18.606Z,21.00
2022-08-07T19:26:29.086Z,20.90
2022-08-07T19:31:03.116Z,20.70
2022-08-07T19:33:10.145Z,20.70
2022-08-07T19:36:27.689Z,20.60
2022-08-07T19:39:56.083Z,20.50
2022-08-07T19:42:57.578Z,20.50
2022-08-07T19:46:07.669Z,20.30
2022-08-07T19:49:19.661Z,20.30
2022-08-07T19:52:42.780Z,20.20
2022-08-07T19:56:06.138Z,20.10
2022-08-07T19:59:21.613Z,20.10
2022-08-07T20:02:35.603Z,20.00
2022-08-07T20:05:59.820Z,20.00
2022-08-07T20:09:07.437Z,19.90
2022-08-07T20:12:34.689Z,19.80
2022-08-07T20:15:39.589Z,19.80
2022-08-07T20:18:45.289Z,19.80
2022-08-07T20:21:51.329Z,19.70
2022-08-07T20:25:00.174Z,19.60
2022-08-07T20:28:07.477Z,19.60
2022-08-07T20:31:21.309Z,19.50
2022-08-07T20:34:49.229Z,19.50
2022-08-07T20:37:58.369Z,19.40
2022-08-07T20:41:07.946Z,19.40
2022-08-07T20:44:14.027Z,19.40
2022-08-07T20:47:25.060Z,19.30
2022-08-07T20:50:30.569Z,19.20
2022-08-07T20:54:03.534Z,19.20
2022-08-07T20:57:01.602Z,19.20
2022-08-07T21:00:09.424Z,19.10
2022-08-07T21:03:16.605Z,19.10
2022-08-07T21:06:28.083Z,19.00
2022-08-07T21:09:53.235Z,19.00
2022-08-07T21:13:01.025Z,18.90
2022-08-07T21:16:06.151Z,18.90
2022-08-07T21:19:13.847Z,18.90
2022-08-07T21:22:19.350Z,18.80
2022-08-07T21:25:28.936Z,18.90
2022-08-07T21:28:48.029Z,18.80
2022-08-07T21:32:42.875Z,18.80
2022-08-07T21:35:34.505Z,18.80
2022-08-07T21:39:44.353Z,18.70
2022-08-07T21:42:46.536Z,18.70
2022-08-07T21:46:10.495Z,18.70
2022-08-07T21:49:27.832Z,18.60
2022-08-07T21:52:43.663Z,18.60
2022-08-07T21:55:54.070Z,18.50
2022-08-07T21:59:05.189Z,18.50
2022-08-07T22:02:21.093Z,18.40
2022-08-07T22:05:44.242Z,18.40
2022-08-07T22:08:56.798Z,18.40
2022-08-07T22:12:06.753Z,18.40
2022-08-07T22:16:43.878Z,18.40
2022-08-07T22:18:50.530Z,18.30
2022-08-07T22:22:10.887Z,18.30
2022-08-07T22:25:36.504Z,18.30
2022-08-07T22:28:53.024Z,18.20
2022-08-07T22:32:06.326Z,18.20
2022-08-07T22:35:11.193Z,18.10
2022-08-07T22:38:29.471Z,18.10
2022-08-07T22:42:05.748Z,18.10
2022-08-07T22:45:11.097Z,18.00
2022-08-07T22:49:00.460Z,18.00
2022-08-07T22:52:36.659Z,18.00
2022-08-07T22:55:58.129Z,17.90
2022-08-07T22:59:25.026Z,17.90
2022-08-07T23:02:45.517Z,17.90
2022-08-07T23:06:23.817Z,17.80
2022-08-07T23:10:06.080Z,17.80
2022-08-07T23:13:20.467Z,17.70
2022-08-07T23:16:55.482Z,17.70
2022-08-07T23:20:51.675Z,17.70
2022-08-07T23:24:11.335Z,17.70
2022-08-07T23:28:21.377Z,17.60
2022-08-07T23:31:42.934Z,17.50
2022-08-07T23:35:01.067Z,17.50
2022-08-07T23:38:36.807Z,17.50
2022-08-07T23:42:04.462Z,17.40
2022-08-07T23:45:33.022Z,17.50
2022-08-07T23:49:15.495Z,17.40
2022-08-07T23:53:00.637Z,17.40
2022-08-07T23:55:55.473Z,17.40
